Time;durP1;ratioP1;P1;durP2;ratioP2;P2;SDS_P1;SDS_P2;PMS_P1;PMS_P2;Temp;Humidity;BMP_temperature;BMP_pressure;BME280_temperature;BME280_humidity;BME280_pressure;Samples;Min_cycle;Max_cycle;Signal;HPM_P1;HPM_P2
2022/01/06 00:00:15;;;;;;;6.03;1.75;;;;;;;-0.59;100.00;95414.41;1017603;29;20028;-73
2022/01/06 00:00:45;;;;;;;7.40;2.20;;;;;;;-0.59;100.00;95417.00;1017432;29;20110;-73
2022/01/06 00:01:16;;;;;;;13.50;2.30;;;;;;;-0.60;100.00;95412.84;1018553;29;20020;-73
2022/01/06 00:01:47;;;;;;;10.28;2.16;;;;;;;-0.62;100.00;95412.22;1025760;28;20022;-73
2022/01/06 00:02:17;;;;;;;4.65;1.92;;;;;;;-0.65;100.00;95405.69;1013359;29;20634;-73
2022/01/06 00:02:48;;;;;;;8.73;2.55;;;;;;;-0.61;100.00;95414.59;1018248;29;20075;-70
2022/01/06 00:03:18;;;;;;;7.05;2.70;;;;;;;-0.58;100.00;95413.41;1015450;29;20075;-73
2022/01/06 00:03:48;;;;;;;6.40;2.33;;;;;;;-0.59;100.00;95414.41;1022638;28;20019;-73
2022/01/06 00:04:19;;;;;;;7.10;2.10;;;;;;;-0.59;100.00;95411.84;1026525;28;20026;-73
2022/01/06 00:04:49;;;;;;;7.60;2.38;;;;;;;-0.63;100.00;95403.72;1022180;28;20059;-73
2022/01/06 00:05:20;;;;;;;11.48;2.70;;;;;;;-0.61;100.00;95413.81;1026217;28;20019;-73
2022/01/06 00:05:51;;;;;;;10.05;1.70;;;;;;;-0.61;100.00;95412.03;1022399;29;20027;-73
2022/01/06 00:06:23;;;;;;;9.77;2.03;;;;;;;-0.61;100.00;95411.22;1026640;28;20027;-72
2022/01/06 00:06:53;;;;;;;10.90;2.42;;;;;;;-0.60;100.00;95411.06;1025752;28;20030;-73
2022/01/06 00:07:24;;;;;;;6.60;2.15;;;;;;;-0.61;100.00;95419.75;1022800;28;20027;-73
2022/01/06 00:07:54;;;;;;;5.93;2.03;;;;;;;-0.59;100.00;95417.00;1027032;28;20029;-73
2022/01/06 00:08:25;;;;;;;10.32;2.45;;;;;;;-0.60;100.00;95418.78;1029711;28;20030;-73
2022/01/06 00:08:57;;;;;;;8.38;1.70;;;;;;;-0.61;100.00;95424.13;1026403;28;20019;-73
2022/01/06 00:09:27;;;;;;;6.70;2.04;;;;;;;-0.60;100.00;95420.56;1026546;28;20031;-73
2022/01/06 00:09:58;;;;;;;6.70;1.80;;;;;;;-0.59;100.00;95415.19;1029142;28;20018;-73
2022/01/06 00:10:30;;;;;;;8.10;2.00;;;;;;;-0.56;100.00;95416.59;1029924;28;20038;-73
2022/01/06 00:11:00;;;;;;;9.96;2.64;;;;;;;-0.58;100.00;95424.50;1026078;28;20118;-73
2022/01/06 00:11:31;;;;;;;5.63;2.53;;;;;;;-0.59;100.00;95417.78;1022504;29;21009;-73
2022/01/06 00:12:02;;;;;;;7.30;2.05;;;;;;;-0.57;100.00;95422.72;1018776;29;20082;-73
2022/01/06 00:12:43;;;;;;;7.10;1.83;;;;;;;-0.60;100.00;95415.41;1018911;29;20122;-73
2022/01/06 00:13:15;;;;;;;11.30;2.44;;;;;;;-0.60;100.00;95420.56;1027771;28;20054;-72
2022/01/06 00:13:59;;;;;;;7.60;2.06;;;;;;;-0.58;100.00;95426.28;1030605;28;20080;-73
2022/01/06 00:14:52;;;;;;;7.20;1.84;;;;;;;-0.58;100.00;95414.19;1030617;28;20019;-73
2022/01/06 00:16:11;;;;;;;5.24;1.84;;;;;;;-0.59;100.00;95427.28;1022663;29;20015;-73
2022/01/06 00:23:52;;;;;;;9.06;2.42;;;;;;;-0.69;100.00;95432.06;1021917;29;20070;-74
2022/01/06 00:24:23;;;;;;;7.75;2.47;;;;;;;-0.75;100.00;95426.69;1018603;29;20044;-73
2022/01/06 00:24:54;;;;;;;7.88;2.13;;;;;;;-0.65;100.00;95433.25;1018587;29;20023;-73
2022/01/06 00:25:24;;;;;;;5.15;1.92;;;;;;;-0.66;100.00;95436.81;1024357;28;20252;-73
2022/01/06 00:25:57;;;;;;;9.35;2.30;;;;;;;-0.67;100.00;95433.44;1022498;29;20015;-73
2022/01/06 00:26:27;;;;;;;10.40;2.66;;;;;;;-0.64;100.00;95439.97;1026419;28;20015;-73
2022/01/06 00:26:58;;;;;;;9.90;2.40;;;;;;;-0.66;100.00;95432.44;1016895;29;20038;-73
2022/01/06 00:27:28;;;;;;;9.13;2.30;;;;;;;-0.75;100.00;95421.56;1018918;29;20111;-73
2022/01/06 00:27:58;;;;;;;8.23;2.72;;;;;;;-0.67;100.00;95437.78;1026454;28;20813;-73
2022/01/06 00:28:29;;;;;;;6.30;2.33;;;;;;;-0.80;100.00;95415.44;1026368;28;20405;-73
2022/01/06 00:29:00;;;;;;;5.22;1.80;;;;;;;-0.69;100.00;95437.22;1022043;28;20484;-70
2022/01/06 00:29:30;;;;;;;7.40;2.85;;;;;;;-0.72;100.00;95435.81;1022495;29;20034;-72
2022/01/06 00:30:00;;;;;;;8.98;3.10;;;;;;;-0.80;100.00;95425.72;1014427;29;20048;-72
2022/01/06 00:30:31;;;;;;;9.68;2.72;;;;;;;-0.79;100.00;95422.16;1021691;28;20027;-72
2022/01/06 00:31:01;;;;;;;8.60;2.47;;;;;;;-0.68;100.00;95442.16;1026609;28;20031;-73
2022/01/06 00:31:32;;;;;;;8.65;2.55;;;;;;;-0.71;100.00;95434.81;1026419;28;20038;-73
2022/01/06 00:32:03;;;;;;;6.28;2.66;;;;;;;-0.68;100.00;95443.94;1026056;28;20050;-73
2022/01/06 00:32:34;;;;;;;8.95;2.22;;;;;;;-0.70;100.00;95428.69;1022980;28;20099;-73
2022/01/06 00:33:04;;;;;;;9.63;2.17;;;;;;;-0.65;100.00;95439.19;1022573;29;20037;-73
2022/01/06 00:33:35;;;;;;;5.05;1.88;;;;;;;-0.69;100.00;95438.00;1026649;28;20140;-73
2022/01/06 00:34:10;;;;;;;9.88;2.80;;;;;;;-0.78;100.00;95427.09;1021933;28;20011;-73
2022/01/06 00:34:41;;;;;;;5.12;2.04;;;;;;;-0.71;100.00;95433.03;1026493;28;20513;-73
2022/01/06 00:35:11;;;;;;;7.02;2.08;;;;;;;-0.68;100.00;95434.44;1025888;28;20049;-73
2022/01/06 00:35:42;;;;;;;8.98;2.33;;;;;;;-0.71;100.00;95443.34;1026924;28;20516;-73
2022/01/06 00:36:12;;;;;;;10.45;3.20;;;;;;;-0.76;100.00;95438.00;1026495;28;20022;-73
2022/01/06 00:36:43;;;;;;;19.08;3.42;;;;;;;-0.72;100.00;95443.53;1026416;28;20050;-74
2022/01/06 00:37:13;;;;;;;9.90;2.22;;;;;;;-0.71;100.00;95440.75;1022502;29;20481;-73
2022/01/06 00:37:44;;;;;;;7.88;2.47;;;;;;;-0.71;100.00;95440.75;1022726;29;20015;-73
2022/01/06 00:38:14;;;;;;;11.13;2.65;;;;;;;-0.73;100.00;95437.59;1022493;29;20012;-73
2022/01/06 00:38:45;;;;;;;7.22;2.25;;;;;;;-0.69;100.00;95430.28;1029995;28;20049;-74
2022/01/06 00:39:15;;;;;;;6.30;2.53;;;;;;;-0.67;100.00;95436.03;1018343;29;20023;-73
2022/01/06 00:39:46;;;;;;;12.10;2.90;;;;;;;-0.74;100.00;95435.22;1010588;29;20032;-73
2022/01/06 00:40:16;;;;;;;8.80;2.08;;;;;;;-0.72;100.00;95444.34;1006385;29;20471;-73
2022/01/06 00:40:49;;;;;;;9.82;2.84;;;;;;;-0.73;100.00;95445.34;1013807;29;20502;-73
2022/01/06 00:41:20;;;;;;;5.85;2.67;;;;;;;-0.73;100.00;95447.91;1026137;28;20019;-73
2022/01/06 00:41:55;;;;;;;8.27;2.35;;;;;;;-0.70;100.00;95439.00;1026447;28;20022;-73
2022/01/06 00:42:25;;;;;;;9.00;2.36;;;;;;;-0.68;100.00;95439.56;1020907;28;20023;-73
2022/01/06 00:42:56;;;;;;;7.30;2.80;;;;;;;-0.71;100.00;95442.56;1017961;29;20024;-74
2022/01/06 00:43:26;;;;;;;7.53;2.15;;;;;;;-0.71;100.00;95445.13;1019010;29;20063;-73
2022/01/06 00:43:57;;;;;;;7.13;2.25;;;;;;;-0.70;100.00;95446.72;1022169;28;20030;-73
2022/01/06 00:44:27;;;;;;;10.52;2.40;;;;;;;-0.79;100.00;95420.38;1022475;29;20456;-73
2022/01/06 00:44:57;;;;;;;4.07;2.00;;;;;;;-0.83;100.00;95424.34;1022497;29;20184;-73
2022/01/06 00:45:28;;;;;;;5.68;2.58;;;;;;;-0.79;100.00;95437.63;1021636;29;20027;-73
2022/01/06 00:45:58;;;;;;;8.90;2.70;;;;;;;-0.78;100.00;95439.19;1022481;29;20082;-73
2022/01/06 00:46:29;;;;;;;7.68;2.45;;;;;;;-0.83;100.00;95432.06;1022498;28;20071;-73
2022/01/06 00:46:59;;;;;;;7.25;2.70;;;;;;;-0.80;100.00;95447.13;1022527;29;20031;-73
2022/01/06 00:47:30;;;;;;;14.52;2.95;;;;;;;-0.84;100.00;95432.25;1027993;28;20030;-73
2022/01/06 00:48:00;;;;;;;9.30;2.88;;;;;;;-0.85;100.00;95439.19;1026413;28;20400;-73
2022/01/06 00:48:31;;;;;;;7.78;2.30;;;;;;;-0.86;100.00;95437.63;1026472;28;20493;-73
2022/01/06 00:49:02;;;;;;;6.90;2.45;;;;;;;-0.90;100.00;95436.44;1026229;28;20023;-74
2022/01/06 00:49:32;;;;;;;10.93;2.70;;;;;;;-0.91;100.00;95434.03;1022455;29;20751;-73
2022/01/06 00:50:03;;;;;;;8.82;2.40;;;;;;;-0.95;100.00;95428.50;1021971;29;20058;-72
2022/01/06 00:50:34;;;;;;;10.30;3.36;;;;;;;-0.92;100.00;95438.41;1026164;28;20504;-73
2022/01/06 00:51:04;;;;;;;6.85;2.70;;;;;;;-1.01;100.00;95424.91;1026287;28;20034;-73
2022/01/06 00:51:35;;;;;;;10.60;3.03;;;;;;;-0.93;100.00;95443.75;1026589;28;20050;-73
2022/01/06 00:52:05;;;;;;;12.70;3.38;;;;;;;-0.95;100.00;95449.09;1018562;29;20629;-74
2022/01/06 00:52:36;;;;;;;11.25;2.95;;;;;;;-0.96;100.00;95437.22;1020650;28;20042;-74
2022/01/06 00:53:06;;;;;;;8.02;2.35;;;;;;;-1.03;100.00;95434.63;1016907;29;20027;-71
2022/01/06 00:53:37;;;;;;;7.63;2.83;;;;;;;-0.96;100.00;95437.22;1014416;29;20028;-73
2022/01/06 00:54:07;;;;;;;8.65;3.00;;;;;;;-0.94;100.00;95440.38;1018443;29;20020;-73
2022/01/06 00:54:38;;;;;;;6.15;2.83;;;;;;;-0.97;100.00;95441.56;1021919;29;20517;-73
2022/01/06 00:55:08;;;;;;;9.82;3.20;;;;;;;-0.97;100.00;95449.31;1022534;29;20086;-73
2022/01/06 00:55:39;;;;;;;12.50;2.95;;;;;;;-0.97;100.00;95451.09;1018579;29;20027;-73
2022/01/06 00:56:10;;;;;;;8.73;3.08;;;;;;;-1.06;100.00;95431.66;1022292;29;20027;-73
2022/01/06 00:56:40;;;;;;;14.18;3.03;;;;;;;-1.10;100.00;95426.13;1022116;29;20555;-74
2022/01/06 00:57:12;;;;;;;6.28;2.47;;;;;;;-1.10;100.00;95427.91;1018749;29;20118;-73
2022/01/06 00:57:42;;;;;;;11.24;3.32;;;;;;;-1.10;100.00;95426.13;1018166;29;20114;-73
2022/01/06 00:58:13;;;;;;;9.68;3.00;;;;;;;-1.03;100.00;95439.00;1018504;29;20533;-74
2022/01/06 00:58:43;;;;;;;7.50;2.75;;;;;;;-1.02;100.00;95438.00;1014506;29;20032;-73
2022/01/06 00:59:14;;;;;;;8.90;2.95;;;;;;;-0.99;100.00;95447.91;1018195;29;20016;-73
2022/01/06 00:59:44;;;;;;;7.03;2.67;;;;;;;-1.00;100.00;95446.34;1026168;28;20412;-74
2022/01/06 01:00:15;;;;;;;9.13;2.95;;;;;;;-1.00;100.00;95446.34;1025797;28;20761;-73
2022/01/06 01:00:45;;;;;;;10.07;3.28;;;;;;;-1.07;100.00;95436.03;1018228;29;20023;-73
2022/01/06 01:01:16;;;;;;;9.10;2.65;;;;;;;-1.07;100.00;95440.38;1014387;29;20032;-73
2022/01/06 01:01:49;;;;;;;10.15;3.10;;;;;;;-0.98;100.00;95446.91;1014478;29;20021;-74
2022/01/06 01:02:20;;;;;;;11.24;3.10;;;;;;;-0.97;100.00;95451.88;1019240;29;20657;-73
2022/01/06 01:02:50;;;;;;;8.60;2.80;;;;;;;-0.94;100.00;95453.25;1015268;28;20023;-73
2022/01/06 01:03:21;;;;;;;6.65;2.75;;;;;;;-0.97;100.00;95446.72;1021917;29;20027;-73
2022/01/06 01:03:51;;;;;;;9.90;3.50;;;;;;;-0.93;100.00;95457.44;1018839;29;20119;-73
2022/01/06 01:04:22;;;;;;;11.50;2.90;;;;;;;-0.93;100.00;95456.63;1018285;29;20020;-73
2022/01/06 01:04:52;;;;;;;7.47;2.45;;;;;;;-0.93;100.00;95457.44;1022268;29;20402;-73
2022/01/06 01:05:23;;;;;;;10.32;3.20;;;;;;;-0.93;100.00;95454.84;1018709;29;20030;-73
2022/01/06 01:05:55;;;;;;;8.95;2.92;;;;;;;-0.94;100.00;95458.41;1026021;28;20046;-73
2022/01/06 01:06:26;;;;;;;10.72;3.20;;;;;;;-0.92;100.00;95453.06;1028771;28;20022;-72
2022/01/06 01:06:56;;;;;;;15.43;3.40;;;;;;;-0.95;100.00;95447.31;1026205;28;20512;-73
2022/01/06 01:07:26;;;;;;;7.35;2.80;;;;;;;-0.90;100.00;95451.88;1026078;28;20049;-73
2022/01/06 01:07:57;;;;;;;10.63;3.30;;;;;;;-0.92;100.00;95455.63;1025747;28;20038;-73
2022/01/06 01:08:27;;;;;;;9.48;2.50;;;;;;;-0.98;100.00;95454.63;1022522;29;20027;-74
2022/01/06 01:08:58;;;;;;;8.25;3.22;;;;;;;-0.91;100.00;95458.00;1026345;28;20133;-73
2022/01/06 01:09:30;;;;;;;10.00;2.80;;;;;;;-0.93;100.00;95461.78;1028606;28;20026;-73
2022/01/06 01:10:00;;;;;;;7.64;2.86;;;;;;;-0.90;100.00;95463.97;1025745;28;20054;-73
2022/01/06 01:10:31;;;;;;;7.22;3.00;;;;;;;-0.92;100.00;95463.38;1018088;29;20036;-73
2022/01/06 01:11:01;;;;;;;8.90;3.20;;;;;;;-0.89;100.00;95468.91;1018288;29;20028;-73
2022/01/06 01:11:32;;;;;;;5.38;2.60;;;;;;;-0.97;100.00;95451.09;1021978;29;20015;-73
2022/01/06 01:12:04;;;;;;;5.10;2.33;;;;;;;-0.91;100.00;95463.16;1022685;28;20015;-73
2022/01/06 01:12:34;;;;;;;14.46;3.74;;;;;;;-0.86;100.00;95472.88;1022225;29;20020;-73
2022/01/06 01:13:07;;;;;;;9.45;3.10;;;;;;;-0.84;100.00;95476.03;1017817;29;20042;-73
2022/01/06 01:13:54;;;;;;;10.18;2.78;;;;;;;-0.87;100.00;95466.94;1018152;29;20027;-73
2022/01/06 01:14:29;;;;;;;6.40;2.90;;;;;;;-0.87;100.00;95476.41;1026389;28;20106;-74
2022/01/06 01:15:06;;;;;;;11.52;3.36;;;;;;;-0.87;100.00;95466.13;1018698;29;20031;-73
2022/01/06 01:15:45;;;;;;;10.76;4.62;;;;;;;-0.84;100.00;95466.56;1023401;29;20023;-73
2022/01/06 01:16:25;;;;;;;10.24;2.80;;;;;;;-0.84;100.00;95468.31;1026926;28;20019;-73
2022/01/06 01:16:58;;;;;;;12.32;4.13;;;;;;;-0.86;100.00;95465.94;1026760;28;20719;-73
2022/01/06 01:17:29;;;;;;;10.40;2.40;;;;;;;-0.81;100.00;95470.50;1029881;28;20555;-73
2022/01/06 01:18:06;;;;;;;7.57;2.72;;;;;;;-0.83;100.00;95470.69;1020829;28;20027;-74
2022/01/06 01:18:36;;;;;;;8.96;3.40;;;;;;;-0.82;100.00;95469.69;1023037;28;20026;-73
2022/01/06 01:19:10;;;;;;;6.30;2.58;;;;;;;-0.83;100.00;95475.84;1022713;29;20552;-73
2022/01/06 01:19:41;;;;;;;8.80;2.56;;;;;;;-0.81;100.00;95473.06;1025129;28;20026;-73
2022/01/06 01:20:11;;;;;;;6.47;2.35;;;;;;;-0.85;100.00;95469.31;1029375;28;20037;-73
2022/01/06 01:20:42;;;;;;;8.05;2.67;;;;;;;-0.84;100.00;95468.31;1030276;28;20018;-73
2022/01/06 01:21:12;;;;;;;6.85;2.75;;;;;;;-0.90;100.00;95462.19;1030513;28;20022;-73
2022/01/06 01:21:42;;;;;;;8.48;2.45;;;;;;;-0.83;100.00;95478.44;1020164;28;20633;-73
2022/01/06 01:22:13;;;;;;;15.02;2.95;;;;;;;-0.89;100.00;95466.34;1018463;29;20028;-73
2022/01/06 01:22:43;;;;;;;8.52;2.90;;;;;;;-0.83;100.00;95478.44;1018543;29;20063;-73
2022/01/06 01:23:14;;;;;;;13.55;2.88;;;;;;;-0.86;100.00;95468.50;1022054;28;20082;-73
2022/01/06 01:23:45;;;;;;;10.57;2.92;;;;;;;-0.83;100.00;95473.28;1010342;29;20076;-73
2022/01/06 01:24:16;;;;;;;11.20;3.33;;;;;;;-0.84;100.00;95474.28;1014598;29;20495;-73
2022/01/06 01:24:46;;;;;;;11.25;3.60;;;;;;;-0.81;100.00;95476.44;1015439;29;20043;-73
2022/01/06 01:25:17;;;;;;;8.05;3.25;;;;;;;-0.89;100.00;95457.81;1015575;28;20020;-73
2022/01/06 01:25:47;;;;;;;10.32;3.15;;;;;;;-0.80;100.00;95472.88;1026524;28;20031;-73
2022/01/06 01:26:17;;;;;;;10.07;3.10;;;;;;;-0.81;100.00;95470.50;1026210;28;20023;-72
2022/01/06 01:26:48;;;;;;;11.02;3.67;;;;;;;-0.80;100.00;95480.63;1030137;28;20038;-73
2022/01/06 01:27:22;;;;;;;13.98;3.15;;;;;;;-0.81;100.00;95476.44;1026367;28;20026;-73
2022/01/06 01:27:55;;;;;;;8.86;3.42;;;;;;;-0.78;100.00;95485.56;1026112;28;20019;-73
2022/01/06 01:28:32;;;;;;;10.90;2.70;;;;;;;-0.80;100.00;95480.63;1025272;28;20517;-73
2022/01/06 01:29:03;;;;;;;9.84;3.30;;;;;;;-0.81;100.00;95476.44;1022471;28;20031;-73
2022/01/06 01:29:58;;;;;;;14.18;2.90;;;;;;;-0.78;100.00;95483.75;1024790;28;20410;-73
2022/01/06 01:30:31;;;;;;;7.64;3.04;;;;;;;-0.76;100.00;95484.38;1021372;29;20027;-73
2022/01/06 01:31:36;;;;;;;11.93;3.28;;;;;;;-0.77;100.00;95482.78;1025073;28;20031;-73
2022/01/06 01:32:07;;;;;;;8.18;3.24;;;;;;;-0.78;100.00;95476.03;1026822;28;20026;-73
2022/01/06 01:32:38;;;;;;;6.80;2.13;;;;;;;-0.77;100.00;95480.22;1026350;28;20022;-73
2022/01/06 01:33:15;;;;;;;10.60;3.06;;;;;;;-0.76;100.00;95476.66;1025322;28;20650;-73
2022/01/06 01:33:46;;;;;;;7.44;2.78;;;;;;;-0.79;100.00;95478.81;1022283;29;20030;-73
2022/01/06 01:34:22;;;;;;;10.00;2.70;;;;;;;-0.83;100.00;95468.13;1023170;28;20023;-74
2022/01/06 01:34:59;;;;;;;7.20;2.40;;;;;;;-0.77;100.00;95482.78;1021846;28;20007;-73
2022/01/06 01:35:32;;;;;;;8.18;2.80;;;;;;;-0.82;100.00;95474.06;1022106;28;20043;-73
2022/01/06 01:36:03;;;;;;;10.12;2.76;;;;;;;-0.86;100.00;95471.09;1018346;29;20694;-73
2022/01/06 01:36:33;;;;;;;10.35;3.17;;;;;;;-0.80;100.00;95477.25;1022086;28;20129;-73
2022/01/06 01:37:04;;;;;;;10.73;2.85;;;;;;;-0.77;100.00;95487.94;1030180;28;20014;-74
2022/01/06 01:37:35;;;;;;;9.88;3.13;;;;;;;-0.77;100.00;95482.78;1026150;28;20011;-73
2022/01/06 01:38:05;;;;;;;9.14;2.98;;;;;;;-0.73;100.00;95489.13;1026487;28;20106;-73
2022/01/06 01:38:37;;;;;;;9.93;3.10;;;;;;;-0.80;100.00;95472.09;1025997;28;20420;-73
2022/01/06 01:39:07;;;;;;;10.12;3.18;;;;;;;-0.75;100.00;95485.94;1026463;28;20023;-73
2022/01/06 01:39:37;;;;;;;9.43;2.70;;;;;;;-0.73;100.00;95489.13;1026235;28;20022;-73
2022/01/06 01:40:09;;;;;;;5.53;2.63;;;;;;;-0.80;100.00;95472.88;1021555;29;20094;-72
2022/01/06 01:40:40;;;;;;;12.78;2.86;;;;;;;-0.74;100.00;95481.59;1022663;28;20050;-73
2022/01/06 01:41:10;;;;;;;6.95;2.80;;;;;;;-0.74;100.00;95479.00;1022254;29;20050;-73
2022/01/06 01:41:41;;;;;;;5.25;2.83;;;;;;;-0.75;100.00;95488.53;1021767;28;20058;-73
2022/01/06 01:42:13;;;;;;;10.63;3.05;;;;;;;-0.72;100.00;95493.28;1022669;29;20011;-73
2022/01/06 01:42:43;;;;;;;6.84;2.54;;;;;;;-0.80;100.00;95474.66;1022329;28;20035;-73
2022/01/06 01:43:14;;;;;;;7.50;2.70;;;;;;;-0.81;100.00;95476.44;1022528;29;20023;-73
2022/01/06 01:43:46;;;;;;;9.25;3.00;;;;;;;-0.80;100.00;95482.41;1026113;28;20011;-73
2022/01/06 01:44:19;;;;;;;10.56;2.90;;;;;;;-0.72;100.00;95492.50;1022329;29;20027;-73
2022/01/06 01:44:51;;;;;;;7.72;2.42;;;;;;;-0.72;100.00;95485.56;1022492;29;20077;-74
2022/01/06 01:45:27;;;;;;;9.14;3.00;;;;;;;-0.78;100.00;95488.13;1020850;28;20489;-73
2022/01/06 01:46:07;;;;;;;12.78;3.32;;;;;;;-0.72;100.00;95492.50;1022426;29;20054;-73
2022/01/06 01:46:43;;;;;;;9.60;2.95;;;;;;;-0.80;100.00;95482.41;1022208;29;20027;-73
2022/01/06 01:47:15;;;;;;;11.42;2.96;;;;;;;-0.73;100.00;95494.28;1017902;29;20059;-73
2022/01/06 01:47:46;;;;;;;6.74;2.32;;;;;;;-0.72;100.00;95488.13;1022219;29;20019;-74
2022/01/06 01:48:24;;;;;;;6.18;2.40;;;;;;;-0.75;100.00;95485.94;1022278;29;20481;-73
2022/01/06 01:49:16;;;;;;;10.94;2.64;;;;;;;-0.72;100.00;95490.72;1023588;28;20046;-73
2022/01/06 01:49:52;;;;;;;10.26;2.68;;;;;;;-0.72;100.00;95498.44;1022199;28;20058;-73
2022/01/06 01:50:22;;;;;;;6.88;2.90;;;;;;;-0.71;100.00;95494.06;1021247;28;20154;-73
2022/01/06 01:50:52;;;;;;;8.43;2.97;;;;;;;-0.69;100.00;95493.88;1026080;28;20022;-73
2022/01/06 01:51:23;;;;;;;11.65;2.90;;;;;;;-0.68;100.00;95496.25;1026292;28;20019;-73
2022/01/06 01:51:53;;;;;;;9.02;3.13;;;;;;;-0.67;100.00;95489.31;1025631;28;20022;-73
2022/01/06 01:52:24;;;;;;;8.68;2.63;;;;;;;-0.64;100.00;95496.66;1022255;29;20039;-73
2022/01/06 01:52:56;;;;;;;9.23;2.83;;;;;;;-0.77;100.00;95481.97;1022184;28;20047;-73
2022/01/06 01:53:27;;;;;;;11.76;3.22;;;;;;;-0.66;100.00;95501.22;1025230;28;20062;-73
2022/01/06 01:53:57;;;;;;;7.88;2.63;;;;;;;-0.73;100.00;95486.56;1019792;29;20028;-73
2022/01/06 01:54:28;;;;;;;7.88;3.45;;;;;;;-0.64;100.00;95501.81;1008998;29;20039;-73
2022/01/06 01:54:58;;;;;;;12.23;2.95;;;;;;;-0.64;100.00;95501.81;1010041;29;20088;-73
2022/01/06 01:55:30;;;;;;;8.80;3.20;;;;;;;-0.73;100.00;95486.56;1016525;28;20028;-73
2022/01/06 01:56:00;;;;;;;11.58;2.80;;;;;;;-0.64;100.00;95492.28;1023260;28;20023;-73
2022/01/06 01:56:31;;;;;;;7.70;3.15;;;;;;;-0.65;100.00;95497.66;1022853;29;20066;-74
2022/01/06 01:57:01;;;;;;;8.20;3.22;;;;;;;-0.62;100.00;95499.84;1018109;29;20027;-73
2022/01/06 01:57:32;;;;;;;8.15;2.92;;;;;;;-0.71;100.00;95483.75;1022658;29;20058;-73
2022/01/06 01:58:02;;;;;;;9.43;2.97;;;;;;;-0.68;100.00;95492.88;1026859;28;20088;-73
2022/01/06 01:58:34;;;;;;;6.97;3.00;;;;;;;-0.71;100.00;95488.91;1027177;28;20097;-73
2022/01/06 01:59:04;;;;;;;9.14;3.34;;;;;;;-0.65;100.00;95497.66;1022837;28;20110;-73
2022/01/06 01:59:35;;;;;;;7.38;3.08;;;;;;;-0.64;100.00;95496.66;1023154;29;20016;-74
2022/01/06 02:00:10;;;;;;;15.65;3.25;;;;;;;-0.63;100.00;95495.69;1026350;28;20045;-73
2022/01/06 02:00:40;;;;;;;8.44;2.90;;;;;;;-0.68;100.00;95491.09;1026047;28;20027;-73
2022/01/06 02:01:11;;;;;;;6.38;2.70;;;;;;;-0.67;100.00;95497.84;1023164;29;20079;-73
2022/01/06 02:01:44;;;;;;;8.57;3.30;;;;;;;-0.68;100.00;95487.72;1022782;28;20090;-73
2022/01/06 02:02:15;;;;;;;7.60;2.88;;;;;;;-0.63;100.00;95495.69;1023218;28;20023;-73
2022/01/06 02:02:45;;;;;;;5.70;2.92;;;;;;;-0.64;100.00;95502.59;1019022;29;20079;-74
2022/01/06 02:03:16;;;;;;;10.82;2.88;;;;;;;-0.62;100.00;95499.84;1019198;29;20039;-73
2022/01/06 02:03:46;;;;;;;9.23;2.72;;;;;;;-0.64;100.00;95496.66;1018940;29;20023;-73
2022/01/06 02:04:16;;;;;;;10.57;2.35;;;;;;;-0.63;100.00;95499.03;1015231;29;20036;-72
2022/01/06 02:04:49;;;;;;;6.38;2.80;;;;;;;-0.64;100.00;95496.66;1018938;29;20028;-73
2022/01/06 02:05:25;;;;;;;8.72;2.96;;;;;;;-0.66;100.00;95493.50;1015324;29;20028;-73
2022/01/06 02:05:56;;;;;;;11.10;3.96;;;;;;;-0.72;100.00;95495.06;1018790;28;20024;-73
2022/01/06 02:06:26;;;;;;;10.00;2.72;;;;;;;-0.72;100.00;95501.00;1020239;29;20028;-73
2022/01/06 02:06:57;;;;;;;10.68;2.92;;;;;;;-0.67;100.00;95491.88;1020090;29;20103;-73
2022/01/06 02:07:27;;;;;;;11.70;2.85;;;;;;;-0.76;100.00;95488.72;1024176;28;20027;-73
2022/01/06 02:07:58;;;;;;;8.93;3.72;;;;;;;-0.75;100.00;95483.38;1026914;28;20104;-73
2022/01/06 02:08:29;;;;;;;6.80;2.84;;;;;;;-0.66;100.00;95493.50;1026914;28;20035;-72
2022/01/06 02:09:00;;;;;;;8.75;2.63;;;;;;;-0.63;100.00;95500.84;1019567;28;20430;-72
2022/01/06 02:09:30;;;;;;;8.52;3.22;;;;;;;-0.72;100.00;95484.75;1019225;29;20020;-73
2022/01/06 02:10:02;;;;;;;7.78;3.22;;;;;;;-0.69;100.00;95492.09;1018548;29;20028;-73
2022/01/06 02:10:32;;;;;;;11.64;2.60;;;;;;;-0.68;100.00;95492.88;1018775;29;20126;-73
2022/01/06 02:11:03;;;;;;;12.43;3.80;;;;;;;-0.69;100.00;95499.03;1018696;29;20063;-72
2022/01/06 02:11:33;;;;;;;8.60;2.80;;;;;;;-0.71;100.00;95494.84;1018838;29;20557;-72
2022/01/06 02:12:04;;;;;;;7.45;2.85;;;;;;;-0.66;100.00;95491.72;1015128;29;20633;-73
2022/01/06 02:12:40;;;;;;;7.72;2.62;;;;;;;-0.67;100.00;95495.28;1025775;28;20400;-74
2022/01/06 02:13:10;;;;;;;8.84;3.04;;;;;;;-0.65;100.00;95489.91;1013059;29;20540;-73
2022/01/06 02:13:52;;;;;;;7.28;2.95;;;;;;;-0.76;100.00;95474.06;1011526;29;20031;-73
2022/01/06 02:14:25;;;;;;;5.98;3.18;;;;;;;-0.66;100.00;95499.44;1007505;29;20025;-73
2022/01/06 02:14:56;;;;;;;10.92;3.10;;;;;;;-0.73;100.00;95483.97;1017854;28;20571;-73
2022/01/06 02:15:27;;;;;;;8.07;3.30;;;;;;;-0.71;100.00;95492.28;1026977;28;20085;-73
2022/01/06 02:15:59;;;;;;;7.18;3.05;;;;;;;-0.72;100.00;95490.72;1023052;29;20599;-72
2022/01/06 02:16:30;;;;;;;9.36;3.60;;;;;;;-0.78;100.00;95475.25;1020617;29;20023;-73
2022/01/06 02:17:00;;;;;;;10.98;3.67;;;;;;;-0.69;100.00;95492.09;1023017;29;20027;-73
2022/01/06 02:17:30;;;;;;;11.57;2.80;;;;;;;-0.66;100.00;95491.72;1023211;29;20031;-73
2022/01/06 02:18:01;;;;;;;13.32;3.67;;;;;;;-0.73;100.00;95489.13;1022663;28;20039;-73
2022/01/06 02:18:31;;;;;;;9.85;2.75;;;;;;;-0.71;100.00;95486.34;1018798;29;20043;-73
2022/01/06 02:19:02;;;;;;;8.40;3.42;;;;;;;-0.72;100.00;95495.06;1015248;29;20039;-73
2022/01/06 02:19:32;;;;;;;8.52;3.13;;;;;;;-0.81;100.00;95481.56;1018866;29;20031;-72
2022/01/06 02:20:07;;;;;;;6.60;3.08;;;;;;;-0.76;100.00;95484.38;1018285;29;20063;-72
2022/01/06 02:20:38;;;;;;;8.68;3.12;;;;;;;-0.82;100.00;95485.16;1026956;28;20045;-73
2022/01/06 02:21:08;;;;;;;8.23;3.03;;;;;;;-0.72;100.00;95495.84;1023703;28;20467;-73
2022/01/06 02:21:40;;;;;;;8.85;3.20;;;;;;;-0.69;100.00;95491.31;1020760;29;20027;-73
2022/01/06 02:22:11;;;;;;;10.10;3.40;;;;;;;-0.70;100.00;95493.09;1026974;28;20102;-73
2022/01/06 02:22:41;;;;;;;5.97;2.92;;;;;;;-0.71;100.00;95497.44;1026921;28;20496;-73
2022/01/06 02:23:12;;;;;;;8.57;3.05;;;;;;;-0.79;100.00;95484.75;1030654;28;20423;-72
2022/01/06 02:23:42;;;;;;;12.65;3.20;;;;;;;-0.69;100.00;95489.53;1026843;28;20035;-73
2022/01/06 02:24:12;;;;;;;6.73;3.07;;;;;;;-0.76;100.00;95494.69;1019192;29;20173;-73
2022/01/06 02:24:43;;;;;;;11.98;4.15;;;;;;;-0.75;100.00;95488.53;1022554;28;20031;-74
2022/01/06 02:25:21;;;;;;;10.70;3.97;;;;;;;-0.71;100.00;95492.28;1017908;29;20092;-73
2022/01/06 02:25:51;;;;;;;6.38;2.96;;;;;;;-0.69;100.00;95496.47;1020147;29;20028;-73
2022/01/06 02:26:21;;;;;;;10.07;2.78;;;;;;;-0.69;100.00;95493.88;1017917;29;20028;-73
2022/01/06 02:26:52;;;;;;;7.05;3.42;;;;;;;-0.67;100.00;95503.00;1020780;28;20035;-72
2022/01/06 02:27:22;;;;;;;10.43;2.90;;;;;;;-0.68;100.00;95495.47;1022898;28;20042;-73
2022/01/06 02:27:53;;;;;;;7.28;2.72;;;;;;;-0.67;100.00;95500.44;1023089;28;20036;-72
2022/01/06 02:28:24;;;;;;;7.15;3.00;;;;;;;-0.66;100.00;95506.38;1022508;28;20023;-73
2022/01/06 02:28:54;;;;;;;9.50;3.13;;;;;;;-0.66;100.00;95493.50;1019144;29;20027;-73
2022/01/06 02:29:25;;;;;;;7.70;3.00;;;;;;;-0.65;100.00;95502.81;1023013;29;20048;-73
2022/01/06 02:29:55;;;;;;;10.23;3.20;;;;;;;-0.66;100.00;95504.59;1022772;28;20035;-73
2022/01/06 02:30:26;;;;;;;7.85;3.17;;;;;;;-0.63;100.00;95501.63;1026103;28;20027;-72
2022/01/06 02:30:57;;;;;;;4.32;2.70;;;;;;;-0.64;100.00;95501.81;1026928;28;20027;-73
2022/01/06 02:31:28;;;;;;;9.46;3.12;;;;;;;-0.65;100.00;95502.81;1026907;28;20035;-73
2022/01/06 02:31:59;;;;;;;7.15;3.08;;;;;;;-0.66;100.00;95506.38;1026937;28;20034;-73
2022/01/06 02:32:29;;;;;;;8.45;2.92;;;;;;;-0.68;100.00;95505.78;1026760;28;20019;-73
2022/01/06 02:33:03;;;;;;;11.20;3.35;;;;;;;-0.65;100.00;95515.69;1022700;29;20386;-71
2022/01/06 02:33:34;;;;;;;7.82;2.80;;;;;;;-0.66;100.00;95501.22;1022758;28;20043;-72
2022/01/06 02:34:05;;;;;;;9.13;3.13;;;;;;;-0.75;100.00;95501.41;1027117;28;20062;-72
2022/01/06 02:34:35;;;;;;;5.75;2.70;;;;;;;-0.76;100.00;95497.25;1030950;28;20026;-74
2022/01/06 02:35:13;;;;;;;8.88;3.35;;;;;;;-0.76;100.00;95492.09;1022489;28;20030;-73